• Südanflug-Wetter

Südanflug-Wetter

Südanflüge sind sowohl am Euroairport Basel-Mulhouse-Freiburg als auch am Flughafen Unique Zürich ein Thema für die Anwohner. In Basel hängen Südanflüge von den Windverhältnissen ab. Für den Euroairport Basel-Mulhouse-Freiburg bereitet MeteoNews deshalb aktuelle Winddaten auf, die direkt auf der Homepage des Flughafens eingebunden werden. Angaben zum Flughafen Zürich finden Sie hier.

In Zürich sind Südanflüge auf die Piste 34 möglich, wenn die horizontale Sichtweite mindestens 750 m beträgt und die Wolkenuntergrenze im Anflugsektor nicht tiefer als 300 Fuss (knapp 100 m) liegt (diese Werte gelten seit dem 1. November 2004).

Prognose für Südanflüge

Heute Sonntag sind Südanflüge möglich.
(Prognose ohne Gewähr. Die Vorhersage wird mehrmals täglich aktualisiert. Verantwortlicher Meteorologe: Roger Perret, 25.02.2024 05:38)

Analyse der letzten METAR-Messungen

Unser Tool wertet die letzten 20 offiziellen Wettermeldungen (METAR) des Flughafens Zürich aus und entscheidet aufgrund der beiden Werte für Sichtweite und Ceiling (Hauptwolkenuntergrenze), ob Südanflüge nach obiger Definition möglich wären. Allerdings repräsentiert der Wert für die Wolkenuntergrenze in der METAR-Meldung nicht die Bewölkung im Anflugsektor sondern generell um den Flughafen. Da über die Bewölkung im Anflugsektor kurzfristig aufgrund von Beobachtungen des Towers und von Piloten entschieden wird, kann die Angabe unseres Tools in gewissen Fällen von den realen Entscheiden der Flugsicherung abweichen.

Südanflüge Datum Uhrzeit Sichtweite Ceiling Vollständige METAR-Meldung
möglich 2024-02-25 08:20:00 > 10 km LSZH 250720Z 15005KT CAVOK 02/00 Q1007 NOSIG
möglich 2024-02-25 07:50:00 > 10 km LSZH 250650Z 16004KT CAVOK M01/M02 Q1007 NOSIG
möglich 2024-02-25 07:20:00 > 10 km LSZH 250620Z 15002KT CAVOK M01/M01 Q1007 NOSIG
möglich 2024-02-25 06:50:00 > 10 km LSZH 250550Z 16003KT CAVOK M01/M02 Q1007 NOSIG
möglich 2024-02-25 06:20:00 > 10 km LSZH 250520Z VRB01KT CAVOK M01/M01 Q1007 NOSIG
möglich 2024-02-25 05:50:00 > 10 km LSZH 250450Z VRB02KT CAVOK M01/M01 Q1007 NOSIG
möglich 2024-02-25 05:20:00 > 10 km LSZH 250420Z AUTO 30003KT CAVOK M01/M01 Q1007 NOSIG
möglich 2024-02-25 04:50:00 > 10 km LSZH 250350Z AUTO VRB03KT CAVOK 00/M01 Q1007 NOSIG
möglich 2024-02-25 04:20:00 > 10 km LSZH 250320Z AUTO 16005KT CAVOK M00/M01 Q1007 NOSIG
möglich 2024-02-25 03:50:00 > 10 km LSZH 250250Z AUTO 13003KT CAVOK 00/M01 Q1007 NOSIG
möglich 2024-02-25 03:20:00 > 10 km LSZH 250220Z AUTO VRB01KT CAVOK 01/M00 Q1008 NOSIG
möglich 2024-02-25 02:50:00 > 10 km LSZH 250150Z AUTO 17002KT CAVOK 02/00 Q1008 NOSIG
möglich 2024-02-25 02:20:00 > 10 km LSZH 250120Z AUTO 14003KT 9999 NCD 02/M00 Q1008 NOSIG
möglich 2024-02-25 01:50:00 > 10 km LSZH 250050Z AUTO 14004KT 9999 FEW043 02/M00 Q1008 NOSIG
möglich 2024-02-25 01:20:00 > 10 km LSZH 250020Z AUTO 12004KT 9999 NCD 03/00 Q1008 NOSIG
möglich 2024-02-25 00:50:00 > 10 km LSZH 242350Z AUTO 15004KT 9999 FEW060 03/01 Q1008 NOSIG
möglich 2024-02-25 00:20:00 > 10 km LSZH 242320Z AUTO 17004KT 9999 FEW075 04/01 Q1008 NOSIG
möglich 2024-02-24 23:50:00 > 10 km 2290 m LSZH 242250Z AUTO 14003KT 9999 BKN075 05/01 Q1008 NOSIG
möglich 2024-02-24 23:20:00 > 10 km LSZH 242220Z 16003KT 9999 FEW065 05/01 Q1008 NOSIG
möglich 2024-02-24 22:50:00 > 10 km LSZH 242150Z 15004KT 9999 FEW060 04/01 Q1008 NOSIG
 

Schnellzugriff auf unser Wetterportal

Erreichen Sie unser Wetterportal noch schneller, indem Sie eine Verknüpfung direkt auf den Home-Bildschirm legen:
  • 1. Tippen Sie auf
  • 2. Zum Home-Bildschirm
  • 1. Tippen Sie auf
  • 2. Wählen Sie 'Zum Startbildschirm hinzufügen'
  • 3. 'Hinzufügen' Tippen
  • 1. Tippen Sie auf
  • 2. Wählen Sie 'Zum Startbildschirm hinzufügen'
  • 3. 'Hinzufügen' Tippen